Time;durP1;ratioP1;P1;durP2;ratioP2;P2;SDS_P1;SDS_P2;PMS_P1;PMS_P2;Temp;Humidity;BMP_temperature;BMP_pressure;BME280_temperature;BME280_humidity;BME280_pressure;Samples;Min_cycle;Max_cycle;Signal;HPM_P1;HPM_P2
2022/12/04 00:00:35;;;;;;;3.58;2.63;;;;;;;6.39;55.73;94727.41;5029604;28;20040;-76
2022/12/04 00:03:00;;;;;;;3.17;2.75;;;;;;;6.26;55.53;94722.63;5014464;28;20037;-75
2022/12/04 00:05:25;;;;;;;3.65;2.65;;;;;;;6.27;55.61;94729.50;5026602;28;20489;-76
2022/12/04 00:07:51;;;;;;;4.13;2.80;;;;;;;6.11;55.53;94712.03;5023622;28;21086;-75
2022/12/04 00:10:16;;;;;;;3.58;2.42;;;;;;;6.18;55.85;94720.50;5029172;28;20057;-75
2022/12/04 00:12:42;;;;;;;3.47;2.42;;;;;;;6.24;55.71;94733.47;5030257;28;20048;-76
2022/12/04 00:15:08;;;;;;;3.33;2.28;;;;;;;6.19;55.54;94730.03;5026454;28;20029;-75
2022/12/04 00:17:34;;;;;;;4.57;2.38;;;;;;;6.12;55.69;94724.16;5030240;28;20039;-76
2022/12/04 00:19:59;;;;;;;8.60;3.58;;;;;;;6.22;55.65;94743.50;5012925;28;20037;-75
2022/12/04 00:22:24;;;;;;;4.20;2.83;;;;;;;6.02;55.70;94725.72;5029235;28;20116;-76
2022/12/04 00:24:50;;;;;;;6.55;3.90;;;;;;;6.09;55.84;94732.63;5029729;28;20392;-76
2022/12/04 00:27:15;;;;;;;6.13;3.22;;;;;;;6.16;55.81;94741.13;5031018;28;20040;-75
2022/12/04 00:29:40;;;;;;;4.45;3.22;;;;;;;6.13;56.15;94744.25;5029836;28;20073;-75
2022/12/04 00:32:06;;;;;;;3.63;3.08;;;;;;;5.94;56.34;94720.97;5016534;28;20623;-75
2022/12/04 00:34:31;;;;;;;5.82;3.15;;;;;;;5.66;56.95;94710.91;5026382;28;20421;-76
2022/12/04 00:36:56;;;;;;;4.82;3.10;;;;;;;5.78;57.04;94729.13;5029504;28;20031;-75
2022/12/04 00:39:22;;;;;;;5.07;3.13;;;;;;;5.85;56.69;94727.03;5009661;28;20107;-75
2022/12/04 00:41:47;;;;;;;4.47;3.60;;;;;;;5.79;56.61;94718.31;5018156;28;20051;-75
2022/12/04 00:44:13;;;;;;;4.30;3.35;;;;;;;5.56;56.80;94681.84;5028412;28;20135;-75
2022/12/04 00:46:38;;;;;;;4.80;3.20;;;;;;;5.87;56.78;94731.00;5018980;28;20405;-75
2022/12/04 00:49:04;;;;;;;4.60;2.47;;;;;;;5.99;56.49;94742.13;5030499;28;20525;-76
2022/12/04 00:51:29;;;;;;;3.08;2.78;;;;;;;5.97;56.30;94738.13;5028844;28;20505;-76
2022/12/04 00:53:54;;;;;;;3.85;2.67;;;;;;;6.05;56.06;94742.91;5029947;28;20473;-75
2022/12/04 00:56:26;;;;;;;4.28;2.92;;;;;;;5.66;56.19;94681.88;5029684;28;20500;-75
2022/12/04 00:58:53;;;;;;;3.72;2.78;;;;;;;6.06;55.93;94747.16;5026679;28;20055;-76
2022/12/04 01:01:20;;;;;;;3.85;2.92;;;;;;;5.86;56.18;94713.59;5021584;28;20037;-75
2022/12/04 01:03:46;;;;;;;3.53;2.80;;;;;;;5.85;56.38;94712.00;5030721;28;20060;-76
2022/12/04 01:06:25;;;;;;;4.70;2.83;;;;;;;5.78;56.38;94710.63;5028067;28;20131;-76
2022/12/04 01:08:53;;;;;;;3.88;2.70;;;;;;;6.05;55.99;94748.19;5032537;28;20044;-75
2022/12/04 01:11:20;;;;;;;3.10;2.60;;;;;;;6.02;56.07;94744.22;5033719;28;20029;-75
2022/12/04 01:13:46;;;;;;;5.55;2.75;;;;;;;5.82;55.99;94725.69;5046349;28;20171;-77
2022/12/04 01:16:24;;;;;;;3.65;3.08;;;;;;;5.91;56.13;94741.84;5038784;28;20116;-76
2022/12/04 01:18:50;;;;;;;3.45;2.42;;;;;;;5.83;56.32;94751.03;5032964;28;20033;-76
2022/12/04 01:21:16;;;;;;;3.95;3.30;;;;;;;5.79;56.52;94728.06;5032980;28;20493;-75
2022/12/04 01:23:42;;;;;;;5.93;3.25;;;;;;;5.89;56.42;94731.53;5033324;28;20091;-76
2022/12/04 01:26:08;;;;;;;5.32;3.75;;;;;;;5.90;56.33;94735.75;5037411;28;20064;-76
2022/12/04 01:28:34;;;;;;;9.30;6.03;;;;;;;5.87;56.27;94728.34;5032265;28;20120;-75
2022/12/04 01:31:03;;;;;;;10.25;6.55;;;;;;;5.81;56.00;94716.22;5030745;28;20033;-75
2022/12/04 01:33:29;;;;;;;10.00;6.65;;;;;;;5.91;56.12;94737.34;5032443;28;20025;-75
2022/12/04 01:35:56;;;;;;;13.00;6.80;;;;;;;5.83;56.17;94718.56;5031058;28;20060;-75
2022/12/04 01:38:22;;;;;;;12.50;8.15;;;;;;;5.78;56.06;94714.06;5036010;28;20029;-76
2022/12/04 01:40:48;;;;;;;14.80;8.45;;;;;;;5.69;56.14;94706.94;5017045;28;20072;-76
2022/12/04 01:43:14;;;;;;;16.63;10.20;;;;;;;5.70;56.12;94709.31;5013302;28;20522;-75
2022/12/04 01:46:01;;;;;;;18.38;8.70;;;;;;;5.87;56.37;94736.25;5032882;28;20027;-75
2022/12/04 01:48:30;;;;;;;16.10;7.90;;;;;;;5.88;56.19;94727.28;5032330;28;20137;-76
2022/12/04 01:51:19;;;;;;;15.27;7.82;;;;;;;5.91;56.09;94726.78;5031136;28;20068;-76
2022/12/04 01:53:53;;;;;;;11.73;6.75;;;;;;;5.83;55.59;94715.94;5029618;28;20118;-76
2022/12/04 01:56:25;;;;;;;11.45;7.53;;;;;;;5.83;55.91;94719.38;5033768;28;20030;-75
2022/12/04 01:58:55;;;;;;;11.05;7.50;;;;;;;5.87;56.11;94731.00;5031064;28;20040;-75
2022/12/04 02:01:21;;;;;;;10.45;6.88;;;;;;;5.72;56.19;94696.66;5031211;28;20112;-75
2022/12/04 02:03:47;;;;;;;8.68;6.93;;;;;;;5.71;56.54;94699.56;5030809;28;20029;-75
2022/12/04 02:06:13;;;;;;;9.60;7.10;;;;;;;5.60;56.62;94680.25;5027620;28;20042;-76
2022/12/04 02:08:38;;;;;;;10.93;7.95;;;;;;;5.79;56.28;94713.03;5031950;28;20610;-76
2022/12/04 02:11:16;;;;;;;18.55;8.02;;;;;;;5.84;56.34;94715.69;5030609;28;20440;-75
2022/12/04 02:13:45;;;;;;;10.52;6.95;;;;;;;5.86;56.13;94718.88;5028134;28;20071;-77
2022/12/04 02:16:28;;;;;;;10.70;7.95;;;;;;;5.84;56.33;94713.03;5030819;28;20595;-76
2022/12/04 02:19:06;;;;;;;10.88;6.70;;;;;;;5.84;56.42;94709.59;5021076;28;20112;-75
2022/12/04 02:21:36;;;;;;;7.38;5.93;;;;;;;5.83;56.62;94713.28;5030535;28;20533;-75
2022/12/04 02:24:35;;;;;;;7.18;5.63;;;;;;;5.83;56.34;94715.94;5031583;28;20115;-75
2022/12/04 02:27:18;;;;;;;5.85;4.22;;;;;;;5.77;56.73;94704.59;5011691;28;20034;-76
2022/12/04 02:30:07;;;;;;;8.68;5.68;;;;;;;5.70;56.55;94693.47;5030822;28;20961;-76
2022/12/04 02:32:39;;;;;;;11.13;6.72;;;;;;;5.68;56.67;94687.66;5030536;28;20552;-75
2022/12/04 02:35:15;;;;;;;14.00;10.77;;;;;;;5.77;57.02;94699.31;5027658;28;20614;-74
2022/12/04 02:37:53;;;;;;;13.40;8.38;;;;;;;5.69;57.01;94686.59;5025166;28;20462;-75
2022/12/04 02:40:24;;;;;;;10.55;9.30;;;;;;;5.54;57.37;94683.94;5028962;28;20052;-75
2022/12/04 02:43:12;;;;;;;8.73;7.82;;;;;;;5.65;57.33;94706.66;5031935;28;20036;-75
2022/12/04 02:45:45;;;;;;;6.60;4.72;;;;;;;5.59;57.66;94707.69;5031851;28;20103;-75
2022/12/04 02:48:17;;;;;;;5.22;4.32;;;;;;;5.34;58.28;94684.66;5020653;28;20037;-77
2022/12/04 02:50:46;;;;;;;5.32;4.10;;;;;;;5.58;57.91;94703.47;5032383;28;20037;-75
2022/12/04 02:53:23;;;;;;;7.45;4.65;;;;;;;5.51;57.95;94716.13;5017739;28;20037;-75
2022/12/04 02:55:56;;;;;;;14.23;5.25;;;;;;;5.49;58.79;94703.19;5021995;28;20036;-75
2022/12/04 02:58:50;;;;;;;10.77;5.32;;;;;;;5.53;59.15;94690.25;5032187;28;20051;-75
2022/12/04 03:01:19;;;;;;;5.03;3.40;;;;;;;5.45;58.88;94674.94;5022926;28;20517;-75
2022/12/04 03:03:53;;;;;;;4.70;3.50;;;;;;;5.40;59.23;94719.75;5031242;28;20064;-75
2022/12/04 03:06:22;;;;;;;3.73;2.83;;;;;;;5.45;59.17;94709.22;5021016;28;20884;-75
2022/12/04 03:08:53;;;;;;;4.50;3.05;;;;;;;5.58;59.07;94706.09;5031459;28;20051;-75
2022/12/04 03:11:18;;;;;;;5.22;2.90;;;;;;;5.63;58.67;94700.06;5031420;28;20509;-75
2022/12/04 03:13:52;;;;;;;3.85;3.30;;;;;;;5.64;58.32;94699.78;5030674;28;20050;-75
2022/12/04 03:16:23;;;;;;;4.38;3.25;;;;;;;5.58;58.40;94685.00;5016185;28;20036;-74
2022/12/04 03:19:08;;;;;;;4.70;3.33;;;;;;;5.66;58.53;94694.25;5029964;28;20120;-75
2022/12/04 03:21:43;;;;;;;4.60;3.13;;;;;;;5.53;58.27;94669.13;5013333;28;20045;-76
2022/12/04 03:24:16;;;;;;;4.43;3.35;;;;;;;5.72;58.42;94696.66;5031569;28;20128;-75
2022/12/04 03:27:02;;;;;;;5.32;3.03;;;;;;;5.56;58.28;94656.25;5031374;28;20878;-76
2022/12/04 03:29:38;;;;;;;3.15;2.42;;;;;;;5.67;58.17;94672.91;5031758;28;20034;-76
2022/12/04 03:32:14;;;;;;;4.85;2.83;;;;;;;5.77;58.12;94688.75;5029530;28;20041;-75
2022/12/04 03:35:05;;;;;;;4.55;3.05;;;;;;;5.79;57.97;94689.28;5019279;28;20030;-75
2022/12/04 03:37:38;;;;;;;4.38;2.85;;;;;;;5.79;58.21;94699.03;5031188;28;20049;-76
2022/12/04 03:40:34;;;;;;;4.88;3.50;;;;;;;5.62;57.90;94670.25;5030856;28;20040;-75
2022/12/04 03:43:03;;;;;;;5.82;3.70;;;;;;;5.81;58.00;94700.38;5021047;28;20748;-75
2022/12/04 03:45:47;;;;;;;4.82;3.15;;;;;;;5.84;58.03;94689.28;5029433;28;20033;-76
2022/12/04 03:48:24;;;;;;;4.20;3.20;;;;;;;5.85;57.91;94688.22;5027958;28;20037;-76
2022/12/04 03:51:03;;;;;;;5.05;3.25;;;;;;;5.83;57.62;94692.97;5030919;28;20053;-75
2022/12/04 03:53:38;;;;;;;4.93;3.05;;;;;;;5.85;57.62;94684.78;5033030;28;20064;-75
2022/12/04 03:56:12;;;;;;;5.80;3.53;;;;;;;5.82;57.48;94683.44;5012020;28;20045;-75
2022/12/04 03:58:43;;;;;;;5.32;3.45;;;;;;;5.72;57.58;94659.72;5030201;28;20044;-74
2022/12/04 04:01:11;;;;;;;4.88;3.17;;;;;;;5.72;57.62;94659.72;5022674;28;20642;-77
2022/12/04 04:03:43;;;;;;;4.45;3.35;;;;;;;5.88;57.60;94682.41;5034034;28;20481;-76
2022/12/04 04:06:16;;;;;;;4.97;3.10;;;;;;;5.84;57.45;94670.78;5031817;28;20025;-76
2022/12/04 04:08:46;;;;;;;4.63;2.90;;;;;;;5.76;57.53;94666.03;5030407;28;20064;-74
2022/12/04 04:11:17;;;;;;;5.35;3.47;;;;;;;5.82;57.17;94675.53;5035901;28;20474;-75
2022/12/04 04:25:17;;;;;;;2.90;2.35;;;;;;;5.74;57.74;94678.69;5031402;28;20035;-77
2022/12/04 04:27:51;;;;;;;3.10;2.08;;;;;;;5.74;57.71;94680.53;5032402;28;20085;-77
2022/12/04 04:30:17;;;;;;;2.47;2.10;;;;;;;5.55;57.79;94667.84;5032411;28;20529;-74
2022/12/04 04:32:56;;;;;;;2.83;2.33;;;;;;;5.47;58.39;94672.84;5030674;28;20086;-76
2022/12/04 04:35:43;;;;;;;3.70;2.42;;;;;;;5.47;58.35;94668.38;5037721;28;20041;-77
2022/12/04 04:38:21;;;;;;;2.60;1.95;;;;;;;5.65;58.23;94680.28;5031568;28;20049;-78
2022/12/04 04:40:47;;;;;;;4.20;2.65;;;;;;;5.71;57.87;94689.78;5031035;28;20029;-78
2022/12/04 04:43:19;;;;;;;5.90;2.65;;;;;;;5.58;58.17;94674.44;5030912;28;20468;-76
2022/12/04 04:46:01;;;;;;;2.70;2.35;;;;;;;5.59;58.63;94694.50;5035178;28;20051;-78
2022/12/04 04:48:31;;;;;;;4.43;2.28;;;;;;;5.31;58.96;94679.91;5028319;28;20088;-78
2022/12/04 04:50:59;;;;;;;3.42;2.15;;;;;;;5.42;59.08;94692.09;5030068;28;20059;-74
2022/12/04 04:53:37;;;;;;;5.65;2.30;;;;;;;5.44;58.91;94691.81;5030600;28;20182;-76
2022/12/04 04:56:05;;;;;;;4.47;2.92;;;;;;;5.17;59.50;94676.16;5029638;28;20548;-77
2022/12/04 04:58:31;;;;;;;4.90;2.78;;;;;;;4.94;60.10;94658.91;5033453;28;20127;-76
2022/12/04 05:01:09;;;;;;;4.15;2.97;;;;;;;4.77;61.13;94686.50;5030926;28;20573;-77
2022/12/04 05:03:35;;;;;;;14.18;6.60;;;;;;;4.79;61.46;94682.59;5032558;28;20552;-77
2022/12/04 05:06:01;;;;;;;7.40;3.90;;;;;;;5.08;61.22;94710.16;5031733;28;20121;-78
2022/12/04 05:08:26;;;;;;;12.27;6.95;;;;;;;5.06;60.95;94720.16;5030137;28;20457;-77
2022/12/04 05:10:52;;;;;;;6.80;3.40;;;;;;;4.91;61.06;94701.63;5031002;28;20091;-77
2022/12/04 05:13:18;;;;;;;4.68;3.10;;;;;;;5.09;61.19;94718.84;5028554;28;20033;-77
2022/12/04 05:15:44;;;;;;;8.93;3.72;;;;;;;4.92;60.77;94697.13;5030351;28;20025;-77
2022/12/04 05:18:10;;;;;;;6.10;4.03;;;;;;;5.10;60.99;94729.13;5029744;28;20614;-77
2022/12/04 05:20:39;;;;;;;5.22;3.45;;;;;;;4.91;61.58;94708.72;5028338;28;20030;-75
2022/12/04 05:23:04;;;;;;;6.80;4.55;;;;;;;4.92;62.23;94740.13;5027926;28;20033;-76
2022/12/04 05:25:30;;;;;;;8.98;3.83;;;;;;;4.65;62.27;94713.03;5027637;28;20086;-75
2022/12/04 05:27:55;;;;;;;5.05;3.70;;;;;;;4.87;61.98;94737.44;5009344;28;20604;-76
2022/12/04 05:30:20;;;;;;;3.90;2.88;;;;;;;4.73;61.45;94717.84;5029853;28;20025;-78
2022/12/04 05:32:46;;;;;;;7.80;3.95;;;;;;;4.62;62.18;94737.28;5028096;28;20377;-74
2022/12/04 05:35:11;;;;;;;8.10;4.93;;;;;;;4.53;63.32;94736.16;5014464;28;20033;-76
2022/12/04 05:37:38;;;;;;;5.10;3.40;;;;;;;4.52;64.38;94739.84;5030833;28;20084;-77
2022/12/04 05:40:06;;;;;;;4.10;3.05;;;;;;;4.65;63.93;94734.91;5016726;28;20536;-77
2022/12/04 05:42:31;;;;;;;3.55;2.47;;;;;;;4.82;62.83;94740.06;5026697;28;20025;-76
2022/12/04 05:44:57;;;;;;;3.10;2.40;;;;;;;5.00;62.02;94734.34;5031332;28;20060;-77
2022/12/04 05:47:22;;;;;;;2.80;2.10;;;;;;;4.93;61.33;94704.81;5027784;28;20647;-75
2022/12/04 05:49:48;;;;;;;4.88;2.40;;;;;;;5.20;60.89;94735.50;5029054;28;20088;-76
2022/12/04 05:52:13;;;;;;;4.40;2.28;;;;;;;5.21;60.88;94747.66;5030937;28;20041;-76
2022/12/04 05:54:39;;;;;;;3.38;2.33;;;;;;;5.19;60.77;94744.50;5030327;28;20092;-77
2022/12/04 05:57:04;;;;;;;3.60;2.30;;;;;;;5.26;60.94;94750.31;5019082;28;20148;-77
2022/12/04 05:59:30;;;;;;;3.15;2.17;;;;;;;5.28;60.68;94727.13;5019215;28;20044;-77
2022/12/04 06:01:55;;;;;;;3.63;2.22;;;;;;;5.32;60.14;94734.25;5035830;28;20160;-77
2022/12/04 06:04:21;;;;;;;4.63;1.92;;;;;;;5.40;60.00;94743.50;5036599;28;20044;-76
2022/12/04 06:06:46;;;;;;;3.45;2.50;;;;;;;5.32;59.62;94736.09;5033121;28;20055;-79
2022/12/04 06:09:12;;;;;;;4.65;2.40;;;;;;;5.23;59.60;94735.81;5035381;28;20037;-77
2022/12/04 06:11:39;;;;;;;3.33;2.35;;;;;;;5.28;59.77;94740.31;5034661;28;20037;-77
2022/12/04 06:14:06;;;;;;;3.25;2.38;;;;;;;5.34;60.08;94736.63;5033135;28;20268;-76
2022/12/04 06:16:35;;;;;;;2.42;1.90;;;;;;;5.24;59.67;94715.47;5032809;28;20507;-75
2022/12/04 06:19:12;;;;;;;4.05;2.40;;;;;;;5.37;59.79;94733.50;5017381;28;20100;-75
2022/12/04 06:21:39;;;;;;;4.10;2.58;;;;;;;5.38;59.48;94727.16;5015031;28;20067;-75
2022/12/04 06:24:06;;;;;;;4.57;2.63;;;;;;;5.51;59.45;94742.50;5011272;28;20099;-75
2022/12/04 06:26:34;;;;;;;3.47;2.58;;;;;;;5.57;59.45;94746.75;5021582;28;20555;-75
2022/12/04 06:29:00;;;;;;;4.25;2.58;;;;;;;5.59;59.39;94749.91;5027059;28;20493;-75
2022/12/04 06:31:27;;;;;;;5.97;2.72;;;;;;;5.67;59.50;94754.72;5030940;28;20041;-76
2022/12/04 06:33:53;;;;;;;2.83;2.22;;;;;;;5.71;59.61;94752.34;5027783;28;20033;-78
2022/12/04 06:36:23;;;;;;;8.27;3.08;;;;;;;5.62;59.54;94738.84;5031717;28;20025;-77
2022/12/04 06:38:50;;;;;;;5.50;3.42;;;;;;;5.73;59.73;94747.56;5031128;28;20608;-77
2022/12/04 06:41:18;;;;;;;7.32;3.60;;;;;;;5.84;59.93;94765.03;5033785;28;20052;-78
2022/12/04 06:43:44;;;;;;;9.90;5.05;;;;;;;5.75;60.05;94741.00;5030458;28;20086;-74
2022/12/04 06:46:15;;;;;;;10.25;5.55;;;;;;;5.93;60.34;94760.84;5032790;28;20090;-77
2022/12/04 06:48:41;;;;;;;12.25;5.45;;;;;;;5.92;60.09;94752.13;5032574;28;20025;-77
2022/12/04 06:51:10;;;;;;;10.98;6.45;;;;;;;6.02;60.42;94760.06;5015838;28;20127;-77
2022/12/04 06:53:36;;;;;;;14.35;6.28;;;;;;;6.02;60.45;94758.50;5032985;28;20033;-77
2022/12/04 06:56:05;;;;;;;11.15;5.05;;;;;;;6.06;60.39;94751.63;5034947;28;20417;-77
2022/12/04 06:58:31;;;;;;;11.68;5.13;;;;;;;6.00;60.42;94732.34;5030062;28;20041;-76
2022/12/04 07:00:57;;;;;;;9.90;5.35;;;;;;;5.99;60.48;94718.34;5034117;28;20128;-76
2022/12/04 07:03:23;;;;;;;10.32;5.05;;;;;;;6.25;60.51;94752.75;5033158;28;20084;-77
2022/12/04 07:05:49;;;;;;;8.30;4.95;;;;;;;6.29;60.54;94753.81;5032421;28;20072;-76
2022/12/04 07:08:14;;;;;;;7.90;4.55;;;;;;;5.86;60.49;94676.63;5026976;28;20140;-76
2022/12/04 07:10:40;;;;;;;7.85;5.10;;;;;;;6.21;60.69;94741.13;5020120;28;20037;-76
2022/12/04 07:13:07;;;;;;;7.82;4.90;;;;;;;6.15;61.43;94752.72;5030198;28;20343;-76
2022/12/04 07:15:34;;;;;;;7.82;4.30;;;;;;;6.28;61.60;94744.28;5013885;28;20060;-76
2022/12/04 07:18:00;;;;;;;8.02;4.65;;;;;;;6.34;61.38;94746.69;5031307;28;20033;-76
2022/12/04 07:20:26;;;;;;;8.40;5.35;;;;;;;6.18;61.77;94726.59;5031316;28;20049;-76
2022/12/04 07:22:51;;;;;;;6.90;4.47;;;;;;;5.97;62.48;94725.72;5026159;28;20076;-76
2022/12/04 07:25:17;;;;;;;6.32;4.60;;;;;;;6.00;62.78;94722.59;5028634;28;20042;-77
2022/12/04 07:27:43;;;;;;;13.00;5.70;;;;;;;5.89;63.54;94731.53;5028234;28;20036;-76
2022/12/04 07:30:09;;;;;;;9.70;4.30;;;;;;;5.92;64.80;94744.19;5028025;28;20040;-76
2022/12/04 07:32:35;;;;;;;5.22;3.50;;;;;;;6.11;65.08;94756.94;5024321;28;20043;-76
2022/12/04 07:35:01;;;;;;;7.68;3.50;;;;;;;5.78;65.92;94739.69;5024878;28;20037;-76
2022/12/04 07:37:26;;;;;;;7.82;3.70;;;;;;;5.64;65.36;94726.19;5022911;28;20285;-77
2022/12/04 07:39:51;;;;;;;5.45;4.25;;;;;;;5.87;65.78;94767.94;5022349;28;20548;-77
2022/12/04 07:42:18;;;;;;;8.02;4.50;;;;;;;5.78;66.48;94769.50;5020879;28;20049;-77
2022/12/04 07:44:43;;;;;;;6.55;4.38;;;;;;;5.89;66.13;94765.84;5027835;28;20091;-76
2022/12/04 07:47:08;;;;;;;7.93;4.22;;;;;;;5.74;66.53;94772.94;5029103;28;20029;-77
2022/12/04 07:49:34;;;;;;;5.88;3.97;;;;;;;5.59;66.49;94739.34;5023277;28;20041;-76
2022/12/04 07:51:59;;;;;;;7.72;4.43;;;;;;;5.29;66.94;94713.66;5029322;28;20032;-77
2022/12/04 07:54:25;;;;;;;8.50;4.43;;;;;;;5.36;67.70;94753.78;5028503;28;20120;-75
2022/12/04 07:56:50;;;;;;;7.35;5.43;;;;;;;5.22;68.30;94738.69;5028827;28;20408;-75
2022/12/04 07:59:15;;;;;;;6.70;4.55;;;;;;;5.43;68.29;94756.22;5011257;28;20041;-77
2022/12/04 08:01:41;;;;;;;10.90;5.20;;;;;;;5.45;67.92;94751.44;5026373;28;20709;-77
2022/12/04 08:04:06;;;;;;;4.75;3.38;;;;;;;5.36;68.38;94766.97;5025781;28;20033;-76
2022/12/04 08:06:33;;;;;;;6.40;3.55;;;;;;;5.05;68.38;94773.13;5014751;28;20028;-76
2022/12/04 08:08:59;;;;;;;6.57;3.75;;;;;;;4.91;69.02;94748.28;5030593;28;20029;-77
2022/12/04 08:11:27;;;;;;;4.15;2.90;;;;;;;4.91;69.15;94758.81;5031017;28;20565;-76
2022/12/04 08:13:54;;;;;;;8.48;4.90;;;;;;;4.88;69.72;94768.03;5030689;28;20045;-77
2022/12/04 08:16:20;;;;;;;7.28;3.92;;;;;;;4.80;70.13;94755.31;5031043;28;20029;-76
2022/12/04 08:18:47;;;;;;;6.80;3.53;;;;;;;4.63;70.21;94717.78;5029171;28;20028;-77
2022/12/04 08:21:15;;;;;;;5.35;3.83;;;;;;;4.94;69.85;94756.47;5031132;28;20408;-76
2022/12/04 08:23:42;;;;;;;8.05;3.17;;;;;;;4.87;69.21;94731.38;5012202;28;20034;-76
2022/12/04 08:26:08;;;;;;;6.40;3.42;;;;;;;4.98;68.69;94764.66;5026325;28;21102;-76
2022/12/04 08:28:35;;;;;;;6.97;4.07;;;;;;;4.87;68.55;94726.91;5029153;28;20112;-76
2022/12/04 08:31:10;;;;;;;4.13;3.17;;;;;;;5.04;68.41;94732.03;5012601;28;20013;-77
2022/12/04 08:33:36;;;;;;;4.10;3.65;;;;;;;5.21;67.94;94756.34;5008423;28;20052;-76
2022/12/04 08:36:05;;;;;;;4.50;2.80;;;;;;;5.14;67.63;94738.13;5020347;28;20644;-76
2022/12/04 08:38:30;;;;;;;6.18;3.15;;;;;;;5.22;67.47;94749.25;5005588;28;20976;-77
2022/12/04 08:41:00;;;;;;;5.15;2.45;;;;;;;5.20;67.32;94753.97;5018906;28;20160;-76
2022/12/04 08:43:25;;;;;;;5.00;2.55;;;;;;;5.13;67.15;94752.38;5023522;28;20151;-77
2022/12/04 08:45:59;;;;;;;4.22;2.22;;;;;;;5.02;67.32;94744.66;5024925;28;20474;-75
2022/12/04 08:48:25;;;;;;;3.40;2.33;;;;;;;4.81;67.31;94740.28;5023588;28;20041;-77
2022/12/04 08:50:50;;;;;;;3.95;2.28;;;;;;;4.95;67.74;94762.53;5026698;28;20114;-75
2022/12/04 08:53:16;;;;;;;3.15;2.63;;;;;;;4.76;67.59;94740.25;5026009;28;20113;-76
2022/12/04 08:55:41;;;;;;;3.92;1.98;;;;;;;4.85;67.56;94757.97;5024199;28;20037;-78
2022/12/04 08:58:07;;;;;;;4.90;3.08;;;;;;;4.69;68.36;94719.41;5027455;28;20028;-76
2022/12/04 09:00:32;;;;;;;5.10;2.50;;;;;;;4.90;68.43;94747.47;5025126;28;20066;-75
2022/12/04 09:02:58;;;;;;;6.13;2.72;;;;;;;4.79;68.08;94714.22;5025764;28;20045;-76
2022/12/04 09:05:23;;;;;;;3.65;2.30;;;;;;;4.97;68.09;94739.34;5025766;28;20040;-76
2022/12/04 09:07:48;;;;;;;4.60;2.55;;;;;;;5.08;67.62;94739.16;5030992;28;20037;-77
2022/12/04 09:10:14;;;;;;;3.95;2.83;;;;;;;5.00;67.62;94725.66;5030652;28;20037;-78
2022/12/04 09:12:39;;;;;;;3.25;2.92;;;;;;;5.02;67.50;94734.91;5022290;28;20033;-76
2022/12/04 09:15:05;;;;;;;5.18;2.35;;;;;;;4.97;67.62;94716.41;5026516;28;20030;-75
2022/12/04 09:17:31;;;;;;;7.35;2.20;;;;;;;5.30;67.21;94733.72;5024152;28;20091;-74
2022/12/04 09:19:56;;;;;;;7.38;2.47;;;;;;;5.33;66.50;94721.88;5022194;28;20080;-75
2022/12/04 09:22:21;;;;;;;2.53;1.95;;;;;;;4.99;65.60;94653.66;4997373;28;20044;-77
2022/12/04 09:24:47;;;;;;;5.25;2.05;;;;;;;5.36;66.04;94694.97;5026513;28;20032;-77
2022/12/04 09:27:12;;;;;;;2.95;2.45;;;;;;;5.27;64.90;94672.78;5028497;28;20419;-76
2022/12/04 09:29:38;;;;;;;3.45;2.65;;;;;;;5.47;64.69;94701.88;5030719;28;20033;-78
2022/12/04 09:32:03;;;;;;;3.50;2.42;;;;;;;5.28;64.50;94696.25;5032605;28;20037;-76
2022/12/04 09:34:28;;;;;;;3.00;2.35;;;;;;;5.22;64.82;94696.50;5031871;28;20048;-75
2022/12/04 09:36:54;;;;;;;9.05;4.65;;;;;;;5.40;65.24;94712.66;5028975;28;20461;-76
2022/12/04 09:39:19;;;;;;;3.47;2.60;;;;;;;5.51;65.60;94701.09;5028516;28;20031;-77
2022/12/04 09:42:06;;;;;;;3.30;2.50;;;;;;;5.54;65.28;94697.13;5031047;28;20040;-76
2022/12/04 09:44:37;;;;;;;3.22;2.22;;;;;;;5.21;65.58;94623.69;5032456;28;20049;-77
2022/12/04 09:47:08;;;;;;;5.43;3.00;;;;;;;5.36;65.57;94655.38;5031891;28;20037;-76
2022/12/04 09:49:45;;;;;;;4.47;2.78;;;;;;;5.66;65.66;94681.06;5028077;28;20512;-75
2022/12/04 09:52:29;;;;;;;4.57;2.97;;;;;;;5.67;65.52;94687.94;5030092;28;20035;-75
2022/12/04 09:54:54;;;;;;;5.25;2.70;;;;;;;5.38;65.64;94640.88;5025969;28;20029;-77
2022/12/04 09:57:28;;;;;;;2.95;2.40;;;;;;;5.46;65.97;94679.16;5031816;28;20040;-76
2022/12/04 09:59:54;;;;;;;5.50;3.13;;;;;;;5.49;66.33;94652.25;5021370;28;20033;-75
2022/12/04 10:02:38;;;;;;;11.07;3.13;;;;;;;5.61;66.62;94663.38;5026876;28;20060;-75
2022/12/04 10:05:06;;;;;;;5.33;3.13;;;;;;;5.59;66.68;94652.28;5031311;28;20099;-76
2022/12/04 10:08:02;;;;;;;3.90;2.90;;;;;;;5.57;65.26;94628.81;5028937;28;20270;-75
2022/12/04 10:10:45;;;;;;;4.47;2.92;;;;;;;5.93;65.24;94642.03;5032230;28;20182;-76
2022/12/04 10:13:16;;;;;;;4.25;3.00;;;;;;;5.90;65.92;94629.34;5028835;28;20116;-76
2022/12/04 10:15:52;;;;;;;6.13;3.95;;;;;;;5.71;66.27;94620.38;5029708;28;20049;-75
2022/12/04 10:18:40;;;;;;;6.20;2.83;;;;;;;5.21;67.83;94637.69;5031833;28;20924;-77
2022/12/04 10:21:06;;;;;;;3.92;2.85;;;;;;;5.13;69.05;94644.25;5025386;28;20051;-77
2022/12/04 10:23:46;;;;;;;6.50;3.05;;;;;;;5.12;69.13;94624.19;5032206;28;20692;-77
2022/12/04 10:26:17;;;;;;;5.30;3.10;;;;;;;5.22;69.29;94617.38;5012808;28;20042;-76
2022/12/04 10:28:50;;;;;;;5.35;3.20;;;;;;;5.05;68.46;94565.63;5031305;28;20037;-76
2022/12/04 10:31:15;;;;;;;6.40;3.70;;;;;;;5.62;68.68;94625.38;5031953;28;20040;-76
2022/12/04 10:33:46;;;;;;;8.32;2.70;;;;;;;5.55;67.38;94624.81;5033982;28;20025;-77
2022/12/04 10:36:16;;;;;;;6.53;3.97;;;;;;;5.48;67.76;94627.72;5030988;28;20033;-75
2022/12/04 10:39:20;;;;;;;4.82;2.78;;;;;;;5.43;68.06;94624.28;5025322;28;20039;-75
2022/12/04 10:42:00;;;;;;;6.28;3.60;;;;;;;4.88;68.76;94572.19;5032679;28;20026;-76
2022/12/04 10:44:26;;;;;;;7.82;3.13;;;;;;;4.84;69.04;94566.66;5031976;28;20045;-76
2022/12/04 10:46:59;;;;;;;3.70;2.63;;;;;;;4.96;69.58;94613.84;5025661;28;20032;-76
2022/12/04 10:49:26;;;;;;;3.90;2.92;;;;;;;4.76;70.70;94619.84;5032624;28;20029;-76
2022/12/04 10:51:51;;;;;;;4.20;3.55;;;;;;;4.76;70.36;94604.03;5031962;28;20171;-76
2022/12/04 10:54:31;;;;;;;6.70;2.72;;;;;;;4.89;70.24;94629.94;5027429;28;20529;-76
2022/12/04 10:57:01;;;;;;;4.90;3.15;;;;;;;4.98;70.16;94628.38;5018441;28;20036;-78
2022/12/04 10:59:28;;;;;;;5.03;3.25;;;;;;;5.04;69.14;94622.03;5030177;28;20751;-76
2022/12/04 11:02:23;;;;;;;4.13;2.63;;;;;;;4.98;69.10;94620.47;4998606;28;20548;-75
2022/12/04 11:04:56;;;;;;;4.93;2.95;;;;;;;4.61;69.71;94586.28;5009613;28;20048;-75
2022/12/04 11:07:27;;;;;;;5.97;3.65;;;;;;;4.87;69.57;94629.38;4994621;28;20608;-78
2022/12/04 11:10:04;;;;;;;9.23;3.53;;;;;;;4.62;69.63;94606.34;5003589;28;20717;-75
2022/12/04 11:12:31;;;;;;;7.78;3.95;;;;;;;4.63;70.14;94625.56;5003378;28;20112;-76
2022/12/04 11:15:13;;;;;;;6.65;3.63;;;;;;;4.67;70.16;94616.09;5009713;28;20065;-76
2022/12/04 11:17:41;;;;;;;5.25;3.00;;;;;;;4.77;70.04;94624.06;5011082;28;20042;-75
2022/12/04 11:20:20;;;;;;;8.43;3.42;;;;;;;4.84;69.95;94622.00;4998518;28;20103;-77
2022/12/04 11:22:53;;;;;;;9.38;3.90;;;;;;;4.82;69.62;94618.00;5009192;28;20033;-75
2022/12/04 11:25:21;;;;;;;4.30;3.38;;;;;;;4.62;69.21;94576.56;5007276;28;20095;-75
2022/12/04 11:27:51;;;;;;;7.07;4.53;;;;;;;4.80;69.32;94597.19;5008438;28;20081;-76
2022/12/04 11:30:33;;;;;;;5.90;3.60;;;;;;;4.74;69.00;94592.97;5006690;28;20037;-76
2022/12/04 11:32:59;;;;;;;8.10;3.55;;;;;;;4.69;69.80;94606.91;4989187;28;20861;-76
2022/12/04 11:35:27;;;;;;;10.52;4.90;;;;;;;4.54;69.95;94585.75;5003737;28;20055;-77
2022/12/04 11:38:14;;;;;;;3.97;2.95;;;;;;;4.56;69.98;94604.72;4981466;28;20038;-75
2022/12/04 11:40:52;;;;;;;7.70;3.88;;;;;;;4.23;71.17;94583.97;5008106;28;20045;-77
2022/12/04 11:43:18;;;;;;;6.35;4.57;;;;;;;4.43;71.43;94613.09;5007051;28;20517;-76
2022/12/04 11:45:58;;;;;;;7.63;4.30;;;;;;;4.36;71.59;94617.75;4994545;28;20060;-77
2022/12/04 11:48:24;;;;;;;6.32;4.07;;;;;;;4.41;71.52;94622.28;5004821;28;20041;-73
2022/12/04 11:51:10;;;;;;;7.30;3.78;;;;;;;4.16;72.26;94625.53;4991222;28;20037;-74
2022/12/04 11:54:11;;;;;;;6.07;4.13;;;;;;;4.19;72.63;94620.53;5007981;28;20580;-74
2022/12/04 11:56:48;;;;;;;7.63;4.65;;;;;;;4.31;72.39;94612.47;5007728;28;20542;-76
2022/12/04 11:59:32;;;;;;;7.35;4.28;;;;;;;4.41;72.21;94617.78;5007633;28;20041;-75
2022/12/04 12:02:39;;;;;;;9.30;5.32;;;;;;;4.44;72.13;94617.31;4991828;28;20081;-76
2022/12/04 12:05:07;;;;;;;11.95;8.25;;;;;;;4.61;71.43;94617.13;4993118;28;20112;-75
2022/12/04 12:08:08;;;;;;;11.52;7.55;;;;;;;4.73;71.31;94614.28;5004527;28;20048;-74